Time;durP1;ratioP1;P1;durP2;ratioP2;P2;SDS_P1;SDS_P2;PMS_P1;PMS_P2;Temp;Humidity;BMP_temperature;BMP_pressure;BME280_temperature;BME280_humidity;BME280_pressure;Samples;Min_cycle;Max_cycle;Signal;HPM_P1;HPM_P2
2022/10/21 00:02:07;;;;;;;21.03;17.07;;;15.10;99.90;;;;;;5091975;28;20187;-70
2022/10/21 00:04:33;;;;;;;26.87;18.93;;;15.10;99.90;;;;;;5092062;28;20580;-70
2022/10/21 00:06:59;;;;;;;19.30;17.17;;;15.00;99.90;;;;;;5076482;28;20740;-70
2022/10/21 00:09:24;;;;;;;19.77;15.93;;;15.10;99.90;;;;;;5054610;28;20177;-71
2022/10/21 00:11:50;;;;;;;27.03;20.40;;;15.10;99.90;;;;;;5051725;28;20172;-70
2022/10/21 00:14:15;;;;;;;23.33;17.70;;;15.10;99.90;;;;;;5051021;28;20258;-70
2022/10/21 00:16:41;;;;;;;22.53;19.00;;;15.00;99.90;;;;;;5051700;28;20174;-70
2022/10/21 00:19:07;;;;;;;18.17;15.50;;;15.00;99.90;;;;;;5051735;28;20171;-70
2022/10/21 00:21:32;;;;;;;23.50;17.67;;;15.10;99.90;;;;;;5051588;28;20222;-70
2022/10/21 00:23:58;;;;;;;25.10;20.33;;;15.10;99.90;;;;;;5054784;28;20648;-70
2022/10/21 00:26:23;;;;;;;28.27;18.43;;;14.90;99.90;;;;;;5088992;28;20175;-70
2022/10/21 00:28:57;;;;;;;25.40;19.83;;;14.90;99.90;;;;;;5096288;28;20166;-70
2022/10/21 00:31:23;;;;;;;18.37;15.13;;;15.00;99.90;;;;;;5096006;28;20274;-70
2022/10/21 00:33:49;;;;;;;23.43;17.97;;;14.90;99.90;;;;;;5095800;28;20427;-70
2022/10/21 00:36:15;;;;;;;35.30;24.20;;;15.00;99.90;;;;;;5096075;28;20404;-70
2022/10/21 00:38:45;;;;;;;27.63;19.93;;;15.00;99.90;;;;;;5095854;28;20178;-70
2022/10/21 00:41:12;;;;;;;32.00;20.87;;;14.90;99.90;;;;;;5095144;28;20659;-70
2022/10/21 00:43:59;;;;;;;30.13;22.00;;;14.80;99.90;;;;;;5095561;28;20450;-70
2022/10/21 00:46:35;;;;;;;21.07;16.90;;;14.70;99.90;;;;;;5095868;28;20741;-69
2022/10/21 00:49:16;;;;;;;26.60;19.67;;;14.80;99.90;;;;;;5095827;28;20383;-70
2022/10/21 00:51:44;;;;;;;23.00;16.97;;;14.90;99.90;;;;;;5095522;28;20841;-70
2022/10/21 00:54:10;;;;;;;21.43;17.07;;;14.90;99.90;;;;;;5095376;28;20865;-70
2022/10/21 00:56:36;;;;;;;19.60;15.30;;;15.00;99.90;;;;;;5093286;28;20427;-70
2022/10/21 00:59:03;;;;;;;19.13;15.43;;;15.10;99.90;;;;;;5077055;28;20167;-70
2022/10/21 01:01:28;;;;;;;20.60;17.00;;;15.20;99.90;;;;;;5095408;28;20936;-70
2022/10/21 01:03:54;;;;;;;23.47;17.90;;;15.20;99.90;;;;;;5095204;28;20448;-70
2022/10/21 01:06:23;;;;;;;22.27;17.90;;;15.20;99.90;;;;;;5095570;28;20162;-70
2022/10/21 01:08:53;;;;;;;22.13;17.13;;;15.10;99.90;;;;;;5095135;28;20166;-70
2022/10/21 01:11:20;;;;;;;20.63;16.83;;;15.10;99.90;;;;;;5066200;28;20935;-70
2022/10/21 01:14:04;;;;;;;17.90;14.80;;;15.10;99.90;;;;;;5054973;28;20417;-69
2022/10/21 01:16:30;;;;;;;18.13;15.30;;;15.10;99.90;;;;;;5036812;28;20472;-70
2022/10/21 01:19:04;;;;;;;20.50;16.70;;;15.10;99.90;;;;;;5055116;28;20408;-70
2022/10/21 01:21:52;;;;;;;22.60;17.10;;;15.10;99.90;;;;;;5054897;28;20209;-70
2022/10/21 01:24:28;;;;;;;19.40;16.53;;;15.10;99.90;;;;;;5020930;28;20452;-70
2022/10/21 01:27:00;;;;;;;25.17;17.93;;;15.00;99.90;;;;;;5074023;28;20463;-70
2022/10/21 01:29:59;;;;;;;19.80;15.53;;;15.10;99.90;;;;;;5076483;28;20418;-70
2022/10/21 01:32:37;;;;;;;14.60;13.10;;;15.10;99.90;;;;;;5094700;28;20408;-70
2022/10/21 01:35:25;;;;;;;24.40;16.63;;;15.10;99.90;;;;;;5093554;28;20862;-70
2022/10/21 01:38:14;;;;;;;19.13;14.43;;;15.10;99.90;;;;;;5084671;28;20410;-70
2022/10/21 01:40:45;;;;;;;24.13;17.67;;;15.10;99.90;;;;;;5074022;28;20421;-70
2022/10/21 01:43:18;;;;;;;19.47;15.93;;;15.10;99.90;;;;;;5073975;28;20959;-70
2022/10/21 01:45:55;;;;;;;21.30;15.63;;;15.10;99.90;;;;;;5074437;28;20404;-70
2022/10/21 01:48:30;;;;;;;22.83;17.23;;;15.20;99.90;;;;;;5074196;28;20393;-69
2022/10/21 01:51:00;;;;;;;18.73;15.70;;;15.30;99.90;;;;;;5074238;28;20427;-69
2022/10/21 01:53:29;;;;;;;22.97;14.50;;;15.20;99.90;;;;;;5074495;28;20407;-69
2022/10/21 01:55:57;;;;;;;18.23;15.60;;;15.20;99.90;;;;;;5074133;28;20883;-69
2022/10/21 01:58:27;;;;;;;17.30;14.70;;;15.10;99.90;;;;;;5093407;28;20401;-69
2022/10/21 02:00:56;;;;;;;23.60;16.43;;;15.10;99.90;;;;;;5094173;28;20428;-69
2022/10/21 02:03:25;;;;;;;27.10;19.80;;;15.00;99.90;;;;;;5094175;28;20456;-69
2022/10/21 02:05:51;;;;;;;17.57;13.87;;;15.10;99.90;;;;;;5092552;28;20408;-70
2022/10/21 02:08:16;;;;;;;28.87;19.10;;;15.10;99.90;;;;;;5094109;28;20457;-68
2022/10/21 02:10:46;;;;;;;18.13;14.57;;;15.00;99.90;;;;;;5094148;28;20206;-69
2022/10/21 02:13:16;;;;;;;19.27;16.30;;;15.00;99.90;;;;;;5093853;28;20185;-69
2022/10/21 02:15:43;;;;;;;24.23;17.57;;;15.00;99.90;;;;;;5093639;28;20418;-69
2022/10/21 02:18:17;;;;;;;21.50;17.30;;;15.10;99.90;;;;;;5094468;28;20404;-69
2022/10/21 02:20:44;;;;;;;15.23;13.00;;;15.20;99.90;;;;;;5093761;28;20426;-69
2022/10/21 02:23:14;;;;;;;19.73;16.43;;;15.30;99.90;;;;;;5093830;28;20876;-69
2022/10/21 02:25:43;;;;;;;18.90;14.97;;;15.40;99.90;;;;;;5094183;28;20390;-69
2022/10/21 02:28:10;;;;;;;18.37;15.13;;;15.40;99.90;;;;;;5075344;28;20415;-69
2022/10/21 02:30:53;;;;;;;18.10;13.80;;;15.40;99.90;;;;;;5093852;28;20934;-68
2022/10/21 02:33:29;;;;;;;18.43;13.50;;;15.50;99.90;;;;;;5093839;28;20427;-69
2022/10/21 02:36:14;;;;;;;16.03;12.07;;;15.60;99.90;;;;;;5093628;28;21366;-70
2022/10/21 02:38:50;;;;;;;16.30;12.37;;;15.70;99.90;;;;;;5093945;28;20504;-69
2022/10/21 02:41:22;;;;;;;16.93;12.73;;;15.80;99.90;;;;;;5094149;28;20425;-69
2022/10/21 02:43:53;;;;;;;19.03;15.00;;;15.80;99.90;;;;;;5093889;28;20439;-69
2022/10/21 02:46:19;;;;;;;15.80;13.63;;;15.90;99.90;;;;;;5093476;28;20439;-69
2022/10/21 02:48:47;;;;;;;14.67;12.97;;;15.80;99.90;;;;;;5093862;28;20402;-69
2022/10/21 02:51:13;;;;;;;14.87;12.90;;;15.80;99.90;;;;;;5093432;28;20188;-69
2022/10/21 02:53:40;;;;;;;17.70;14.33;;;15.90;99.90;;;;;;5093597;28;20410;-69
2022/10/21 02:56:06;;;;;;;19.83;13.00;;;15.90;99.90;;;;;;5091963;28;20505;-70
2022/10/21 02:58:32;;;;;;;12.37;11.07;;;15.90;99.90;;;;;;5088194;28;20423;-69
2022/10/21 03:00:58;;;;;;;13.60;12.27;;;16.00;99.90;;;;;;5048568;28;20444;-69
2022/10/21 03:03:24;;;;;;;20.80;16.87;;;16.00;99.90;;;;;;5053706;28;20198;-69
2022/10/21 03:05:50;;;;;;;20.83;15.10;;;15.90;99.90;;;;;;5053496;28;20416;-69
2022/10/21 03:08:16;;;;;;;17.03;12.87;;;15.60;99.90;;;;;;5053412;28;20415;-69
2022/10/21 03:10:42;;;;;;;15.23;12.00;;;15.70;99.90;;;;;;5052913;28;20240;-69
2022/10/21 03:13:07;;;;;;;13.40;12.00;;;15.90;99.90;;;;;;5062513;28;20425;-69
2022/10/21 03:15:33;;;;;;;15.33;12.50;;;15.90;99.90;;;;;;5093328;28;20172;-68
2022/10/21 03:17:58;;;;;;;14.70;11.83;;;15.80;99.90;;;;;;5093437;28;20261;-69
2022/10/21 03:20:24;;;;;;;13.00;11.40;;;15.90;99.90;;;;;;5091043;28;20223;-69
2022/10/21 03:22:50;;;;;;;17.60;15.40;;;16.00;99.90;;;;;;5092803;28;20193;-69
2022/10/21 03:25:16;;;;;;;17.27;13.40;;;16.00;99.90;;;;;;5093068;28;20484;-68
2022/10/21 03:27:41;;;;;;;14.43;12.07;;;16.00;99.90;;;;;;5092823;28;20176;-69
2022/10/21 03:30:07;;;;;;;15.23;13.50;;;15.70;99.90;;;;;;5084697;28;20804;-70
2022/10/21 03:32:33;;;;;;;11.77;10.50;;;15.70;99.90;;;;;;5072383;28;20175;-69
2022/10/21 03:34:59;;;;;;;15.80;14.20;;;15.60;99.90;;;;;;5071839;28;20900;-70
2022/10/21 03:37:25;;;;;;;17.13;14.23;;;15.60;99.90;;;;;;5072448;28;20768;-70
2022/10/21 03:39:50;;;;;;;16.67;13.53;;;15.60;99.90;;;;;;5072583;28;20226;-69
2022/10/21 03:42:16;;;;;;;17.63;13.60;;;15.60;99.90;;;;;;5092508;28;20656;-69
2022/10/21 03:44:41;;;;;;;15.60;12.67;;;15.50;99.90;;;;;;5074298;28;20735;-69
2022/10/21 03:47:07;;;;;;;15.27;12.23;;;15.60;99.90;;;;;;5074306;28;20256;-69
2022/10/21 03:49:32;;;;;;;18.93;12.20;;;15.70;99.90;;;;;;5090863;28;20296;-69
2022/10/21 03:51:58;;;;;;;16.07;14.00;;;15.70;99.90;;;;;;5092508;28;20167;-70
2022/10/21 03:54:23;;;;;;;16.60;11.80;;;15.70;99.90;;;;;;5092295;28;20170;-70
2022/10/21 03:56:49;;;;;;;14.80;11.50;;;15.70;99.90;;;;;;5090173;28;20280;-70
2022/10/21 03:59:15;;;;;;;13.43;9.63;;;15.80;99.90;;;;;;5091452;28;20498;-69
2022/10/21 04:01:40;;;;;;;12.47;10.70;;;15.80;99.90;;;;;;5073756;28;20201;-69
2022/10/21 04:04:06;;;;;;;16.30;11.00;;;15.80;99.90;;;;;;5092122;28;20167;-69
2022/10/21 04:06:32;;;;;;;15.27;10.97;;;15.90;99.90;;;;;;5092144;28;20246;-69
2022/10/21 04:08:57;;;;;;;13.50;10.70;;;16.00;99.90;;;;;;5092225;28;20168;-69
2022/10/21 04:11:23;;;;;;;15.40;10.17;;;16.10;99.90;;;;;;5097448;22;20227;-73
2022/10/21 04:13:48;;;;;;;13.30;9.60;;;16.20;99.90;;;;;;4991128;28;20176;-72
2022/10/21 04:16:17;;;;;;;15.43;10.67;;;16.30;99.90;;;;;;4991093;28;20176;-72
2022/10/21 04:18:43;;;;;;;14.23;11.23;;;16.40;99.90;;;;;;4991316;28;20168;-73
2022/10/21 04:21:09;;;;;;;20.30;12.13;;;16.50;99.90;;;;;;4991382;28;20412;-72
2022/10/21 04:23:35;;;;;;;13.50;9.83;;;16.50;99.90;;;;;;4989896;28;20452;-72
2022/10/21 04:26:01;;;;;;;13.23;9.70;;;16.50;99.90;;;;;;4990949;28;20416;-72
2022/10/21 04:28:27;;;;;;;11.00;9.90;;;16.20;99.90;;;;;;4990876;28;20778;-72
2022/10/21 04:30:52;;;;;;;14.50;11.43;;;16.20;99.90;;;;;;4990989;28;20205;-71
2022/10/21 04:33:18;;;;;;;12.63;10.83;;;16.30;99.90;;;;;;4991761;28;20197;-71
2022/10/21 04:35:44;;;;;;;13.93;8.60;;;16.30;99.90;;;;;;4991262;28;20172;-72
2022/10/21 04:38:09;;;;;;;14.03;9.60;;;16.50;99.90;;;;;;4990919;28;20169;-72
2022/10/21 04:40:35;;;;;;;12.63;10.50;;;16.50;99.90;;;;;;4990601;28;20197;-72
2022/10/21 04:43:01;;;;;;;13.80;9.10;;;16.50;99.90;;;;;;4990319;28;20334;-72
2022/10/21 04:45:27;;;;;;;12.90;8.30;;;16.50;99.90;;;;;;4990578;28;20632;-72
2022/10/21 04:47:53;;;;;;;11.20;8.40;;;16.40;99.90;;;;;;4990589;28;20407;-72
2022/10/21 04:50:18;;;;;;;11.83;7.37;;;16.30;99.90;;;;;;4990783;28;20222;-71
2022/10/21 04:52:44;;;;;;;9.67;6.83;;;16.40;99.90;;;;;;4990592;28;20541;-71
2022/10/21 04:55:09;;;;;;;10.10;6.70;;;16.50;99.90;;;;;;4989044;28;20183;-72
2022/10/21 04:57:35;;;;;;;15.67;8.33;;;16.50;99.90;;;;;;4989855;28;20203;-74
2022/10/21 05:00:02;;;;;;;14.90;10.83;;;16.70;99.90;;;;;;4989793;28;20192;-72
2022/10/21 05:02:27;;;;;;;19.10;15.30;;;16.70;99.90;;;;;;4990383;28;20565;-73
2022/10/21 05:04:53;;;;;;;15.20;12.50;;;16.70;99.90;;;;;;4990494;28;20495;-71
2022/10/21 05:07:19;;;;;;;9.53;7.03;;;16.70;99.90;;;;;;4990472;28;20171;-70
2022/10/21 05:09:44;;;;;;;9.40;6.63;;;16.70;99.90;;;;;;4991685;28;20417;-71
2022/10/21 05:12:10;;;;;;;11.93;5.40;;;16.80;99.90;;;;;;4992475;28;20234;-71
2022/10/21 05:14:36;;;;;;;9.40;5.27;;;16.80;99.90;;;;;;4993076;28;20229;-71
2022/10/21 05:17:01;;;;;;;11.20;6.37;;;16.80;99.90;;;;;;4993741;28;20256;-71
2022/10/21 05:19:27;;;;;;;11.50;4.83;;;16.80;99.90;;;;;;4993706;28;20439;-72
2022/10/21 05:21:53;;;;;;;9.13;5.83;;;16.90;99.90;;;;;;4993359;28;20210;-72
2022/10/21 05:24:18;;;;;;;10.93;6.50;;;16.80;99.90;;;;;;4993359;28;20171;-71
2022/10/21 05:26:44;;;;;;;7.53;5.73;;;16.90;99.90;;;;;;4993750;28;20217;-72
2022/10/21 05:29:09;;;;;;;7.73;5.03;;;16.80;99.90;;;;;;4992245;28;20267;-71
2022/10/21 05:31:35;;;;;;;10.87;5.03;;;16.80;99.90;;;;;;4993144;28;20189;-72
2022/10/21 05:34:00;;;;;;;12.37;5.50;;;16.80;99.90;;;;;;4992774;28;20183;-72
2022/10/21 05:36:26;;;;;;;14.20;5.90;;;16.90;99.90;;;;;;4993128;28;20256;-70
2022/10/21 05:38:52;;;;;;;10.50;5.73;;;16.90;99.90;;;;;;4993122;28;20182;-72
2022/10/21 05:41:18;;;;;;;13.10;5.60;;;16.90;99.90;;;;;;4993294;28;20628;-70
2022/10/21 05:43:44;;;;;;;9.00;4.00;;;17.00;99.90;;;;;;4992471;28;20551;-70
2022/10/21 05:46:09;;;;;;;10.47;5.30;;;17.00;99.90;;;;;;4993005;28;20629;-70
2022/10/21 05:48:36;;;;;;;9.90;5.40;;;17.00;99.90;;;;;;4993331;28;20259;-70
2022/10/21 05:51:02;;;;;;;8.93;4.90;;;16.90;99.90;;;;;;4989082;28;20279;-71
2022/10/21 05:53:28;;;;;;;14.40;5.70;;;17.00;99.90;;;;;;4992747;28;20435;-70
2022/10/21 05:56:02;;;;;;;13.13;4.83;;;17.00;99.90;;;;;;4993295;28;20427;-71
2022/10/21 05:58:29;;;;;;;10.20;4.73;;;17.00;99.90;;;;;;4991557;28;20181;-71
2022/10/21 06:00:55;;;;;;;13.07;4.77;;;17.10;99.90;;;;;;4992945;28;20511;-71
2022/10/21 06:03:30;;;;;;;9.33;4.90;;;17.00;99.90;;;;;;4992686;28;20482;-71
2022/10/21 06:05:58;;;;;;;10.90;5.03;;;17.00;99.90;;;;;;4992751;28;20483;-71
2022/10/21 06:08:24;;;;;;;12.10;5.73;;;17.10;99.90;;;;;;4992747;28;20465;-71
2022/10/21 06:10:58;;;;;;;15.50;5.87;;;17.20;99.90;;;;;;4991222;28;20454;-71
2022/10/21 06:13:23;;;;;;;12.10;4.77;;;17.20;99.90;;;;;;4992719;28;20405;-73
2022/10/21 06:15:49;;;;;;;11.80;4.83;;;17.20;99.90;;;;;;4992644;28;20407;-71
2022/10/21 06:18:14;;;;;;;11.40;5.37;;;17.20;99.90;;;;;;4992502;28;20181;-71
2022/10/21 06:20:40;;;;;;;7.67;4.83;;;17.20;99.90;;;;;;4991814;28;20212;-71
2022/10/21 06:23:05;;;;;;;16.83;5.67;;;17.00;99.90;;;;;;4992667;28;20212;-71
2022/10/21 06:25:31;;;;;;;9.97;6.20;;;16.90;99.90;;;;;;4992594;28;20176;-71
2022/10/21 06:27:56;;;;;;;12.40;6.23;;;16.80;99.90;;;;;;4992767;28;20177;-72
2022/10/21 06:30:22;;;;;;;9.50;6.80;;;16.70;99.90;;;;;;4976980;28;20251;-72
2022/10/21 06:32:48;;;;;;;11.20;5.73;;;16.70;99.90;;;;;;4973154;28;20185;-71
2022/10/21 06:35:13;;;;;;;10.67;5.50;;;16.70;99.90;;;;;;4972789;28;20213;-71
2022/10/21 06:37:39;;;;;;;11.93;6.60;;;16.80;99.90;;;;;;4973193;28;20175;-72
2022/10/21 06:40:05;;;;;;;11.17;7.00;;;16.80;99.90;;;;;;4973159;28;20292;-72
2022/10/21 06:42:31;;;;;;;7.73;5.10;;;16.80;99.90;;;;;;4972793;28;20198;-71
2022/10/21 06:44:56;;;;;;;13.07;6.13;;;16.80;99.90;;;;;;4972573;28;20455;-70
2022/10/21 06:47:22;;;;;;;10.60;5.67;;;16.90;99.90;;;;;;4973357;28;20227;-70
2022/10/21 06:49:47;;;;;;;10.23;6.10;;;16.90;99.90;;;;;;4973644;28;20184;-71
2022/10/21 06:52:13;;;;;;;13.07;5.73;;;16.90;99.90;;;;;;4972449;28;20192;-71
2022/10/21 06:54:38;;;;;;;8.80;5.10;;;16.90;99.90;;;;;;4972693;28;20620;-71
2022/10/21 06:57:04;;;;;;;11.67;5.30;;;17.00;99.90;;;;;;4973288;28;20174;-71
2022/10/21 06:59:30;;;;;;;14.13;6.03;;;17.00;99.90;;;;;;4972167;28;20184;-72
2022/10/21 07:01:55;;;;;;;9.50;5.90;;;17.00;99.90;;;;;;4972090;28;20538;-72
2022/10/21 07:04:21;;;;;;;9.57;5.80;;;17.10;99.90;;;;;;4973080;28;20416;-73
2022/10/21 07:06:47;;;;;;;12.23;6.47;;;17.10;99.90;;;;;;4991983;28;20168;-70
2022/10/21 07:09:13;;;;;;;10.33;5.30;;;17.00;99.90;;;;;;4992042;28;20210;-70
2022/10/21 07:11:39;;;;;;;10.90;5.70;;;17.00;99.90;;;;;;4990887;28;20460;-70
2022/10/21 07:14:05;;;;;;;11.87;5.77;;;17.10;99.90;;;;;;4992319;28;20499;-71
2022/10/21 07:16:35;;;;;;;7.43;5.40;;;17.10;99.90;;;;;;4991796;28;20176;-70
2022/10/21 07:19:01;;;;;;;13.40;5.87;;;17.00;99.90;;;;;;4992331;28;20618;-70
2022/10/21 07:21:29;;;;;;;12.10;5.50;;;17.10;99.90;;;;;;4991925;28;20435;-71
2022/10/21 07:23:55;;;;;;;15.57;6.70;;;17.10;99.90;;;;;;4991898;28;20448;-71
2022/10/21 07:26:22;;;;;;;16.37;6.40;;;17.30;99.90;;;;;;4992775;28;20825;-70
2022/10/21 07:28:49;;;;;;;7.90;5.13;;;17.30;99.90;;;;;;4992117;28;20791;-71
2022/10/21 07:31:16;;;;;;;11.50;6.20;;;17.30;99.90;;;;;;4994704;28;20503;-71
2022/10/21 07:33:42;;;;;;;9.50;5.13;;;17.10;99.90;;;;;;4991341;28;20408;-70
2022/10/21 07:36:20;;;;;;;16.73;6.60;;;17.00;99.90;;;;;;4992692;28;20485;-71
2022/10/21 07:38:48;;;;;;;11.57;6.03;;;17.00;99.90;;;;;;4992047;28;20171;-71
2022/10/21 07:41:16;;;;;;;10.10;5.87;;;17.10;99.90;;;;;;4992218;28;20467;-70
2022/10/21 07:43:42;;;;;;;14.83;6.10;;;17.00;99.90;;;;;;4991637;28;20440;-72
2022/10/21 07:46:07;;;;;;;12.00;5.40;;;17.10;99.90;;;;;;4991374;28;20765;-70
2022/10/21 07:48:33;;;;;;;8.13;4.77;;;17.10;99.90;;;;;;4991747;28;20172;-71
2022/10/21 07:51:05;;;;;;;10.40;6.00;;;17.30;99.90;;;;;;4991248;28;20651;-71
2022/10/21 07:53:30;;;;;;;14.47;6.40;;;17.20;99.90;;;;;;4991500;28;20217;-70
2022/10/21 07:56:13;;;;;;;12.80;5.90;;;17.20;99.90;;;;;;4991478;28;20412;-70
2022/10/21 07:58:38;;;;;;;15.30;6.40;;;17.20;99.90;;;;;;4990168;28;20589;-70
2022/10/21 08:01:06;;;;;;;12.23;5.90;;;17.00;99.90;;;;;;4976316;28;20475;-71
2022/10/21 08:03:32;;;;;;;14.13;6.30;;;16.90;99.90;;;;;;4971779;28;20193;-70
2022/10/21 08:05:58;;;;;;;9.53;6.27;;;16.80;99.90;;;;;;4980406;28;20434;-71
2022/10/21 08:08:24;;;;;;;16.93;7.33;;;16.80;99.90;;;;;;4991668;28;20400;-71
2022/10/21 08:10:51;;;;;;;8.03;6.50;;;16.80;99.90;;;;;;4990984;28;20203;-71
2022/10/21 08:13:17;;;;;;;11.97;7.80;;;16.80;99.90;;;;;;4991372;28;20419;-70
2022/10/21 08:15:51;;;;;;;8.60;6.17;;;16.80;99.90;;;;;;4991393;28;20774;-70
2022/10/21 08:18:18;;;;;;;10.97;6.80;;;16.90;99.90;;;;;;4991701;28;20427;-71
2022/10/21 08:20:45;;;;;;;12.93;7.90;;;16.90;99.90;;;;;;4990458;28;20431;-71
2022/10/21 08:23:12;;;;;;;7.53;6.13;;;16.90;99.90;;;;;;4990729;28;20535;-71
2022/10/21 08:25:38;;;;;;;11.33;8.00;;;16.90;99.90;;;;;;4990981;28;20408;-72
2022/10/21 08:28:04;;;;;;;11.20;6.50;;;16.90;99.90;;;;;;4990259;28;20435;-72
2022/10/21 08:30:31;;;;;;;8.40;6.50;;;16.90;99.90;;;;;;4970983;28;20198;-71
2022/10/21 08:32:58;;;;;;;11.70;7.00;;;16.90;99.90;;;;;;4971368;28;20428;-72
2022/10/21 08:35:24;;;;;;;17.20;6.97;;;17.00;99.90;;;;;;4971745;28;20409;-72
2022/10/21 08:37:50;;;;;;;11.13;6.67;;;17.10;99.90;;;;;;4971182;28;20409;-72
2022/10/21 08:40:17;;;;;;;14.20;8.77;;;17.10;99.90;;;;;;4971274;28;20803;-72
2022/10/21 08:42:44;;;;;;;11.90;7.40;;;17.10;99.90;;;;;;4971201;28;20201;-72
2022/10/21 08:45:28;;;;;;;11.60;7.90;;;17.10;99.90;;;;;;4984880;28;20478;-71
2022/10/21 08:47:58;;;;;;;11.90;7.43;;;17.20;99.90;;;;;;4994024;28;20415;-71
2022/10/21 08:50:33;;;;;;;12.23;7.23;;;17.20;99.90;;;;;;4994347;28;20434;-72
2022/10/21 08:53:04;;;;;;;10.50;6.50;;;17.30;99.90;;;;;;4993602;28;20474;-71
2022/10/21 08:55:34;;;;;;;11.97;6.90;;;17.50;99.90;;;;;;4993673;28;20894;-71
2022/10/21 08:58:00;;;;;;;8.40;6.27;;;17.40;99.90;;;;;;4993873;28;20416;-71
2022/10/21 09:00:46;;;;;;;13.00;7.40;;;17.10;99.90;;;;;;4990943;28;20454;-71
2022/10/21 09:03:24;;;;;;;13.67;7.33;;;17.30;99.90;;;;;;4993980;28;20446;-71
2022/10/21 09:06:08;;;;;;;13.47;8.33;;;17.10;99.90;;;;;;4993519;28;20499;-71
2022/10/21 09:08:49;;;;;;;11.47;7.83;;;17.00;99.90;;;;;;4993772;28;20491;-71
2022/10/21 09:11:31;;;;;;;10.90;7.73;;;17.00;99.90;;;;;;4993542;28;20479;-71
2022/10/21 09:14:22;;;;;;;12.73;7.67;;;17.20;99.90;;;;;;4993648;28;20761;-72
2022/10/21 09:17:00;;;;;;;9.90;6.17;;;17.20;99.90;;;;;;4993334;28;20384;-71
2022/10/21 09:19:42;;;;;;;10.60;7.00;;;17.30;99.90;;;;;;4993779;28;20761;-71
2022/10/21 09:22:32;;;;;;;10.50;5.63;;;17.50;99.90;;;;;;4993584;28;20387;-71
2022/10/21 09:25:02;;;;;;;8.00;6.10;;;17.70;99.90;;;;;;4993896;28;20387;-70
2022/10/21 09:27:28;;;;;;;10.20;6.00;;;17.80;99.90;;;;;;4993765;28;20499;-70
2022/10/21 09:30:04;;;;;;;8.23;5.80;;;17.90;99.90;;;;;;4993000;28;20408;-71
2022/10/21 09:32:38;;;;;;;6.20;4.13;;;18.10;99.90;;;;;;4991586;28;20468;-74
2022/10/21 09:35:14;;;;;;;6.60;4.43;;;18.30;99.90;;;;;;4993494;28;20392;-74
2022/10/21 09:37:46;;;;;;;8.10;4.77;;;18.40;99.90;;;;;;4993798;28;20394;-74
2022/10/21 09:40:19;;;;;;;7.60;4.80;;;18.40;99.90;;;;;;4993215;28;20892;-75
2022/10/21 09:42:47;;;;;;;6.87;4.30;;;18.70;99.90;;;;;;4993135;28;21026;-74
2022/10/21 09:45:34;;;;;;;4.97;3.80;;;18.70;99.90;;;;;;4993047;28;20400;-76
2022/10/21 09:48:16;;;;;;;7.70;3.93;;;18.70;99.90;;;;;;4993132;28;20392;-75
2022/10/21 09:50:48;;;;;;;8.23;3.60;;;18.80;99.90;;;;;;4991642;28;20432;-75
2022/10/21 09:53:18;;;;;;;10.87;4.33;;;18.90;99.90;;;;;;4993292;28;20836;-75
2022/10/21 09:55:50;;;;;;;6.83;3.47;;;18.90;99.90;;;;;;4992136;28;20439;-74
2022/10/21 09:58:43;;;;;;;4.10;3.27;;;19.00;99.90;;;;;;4993294;28;20404;-75
2022/10/21 10:01:16;;;;;;;8.80;3.43;;;18.70;99.90;;;;;;4992097;28;20534;-75
2022/10/21 10:03:45;;;;;;;4.77;3.10;;;18.80;99.90;;;;;;4993028;28;20439;-75
2022/10/21 10:06:11;;;;;;;7.97;3.37;;;18.70;99.90;;;;;;4992867;28;20408;-75
2022/10/21 10:08:38;;;;;;;4.93;2.93;;;18.80;99.90;;;;;;4991622;28;20447;-75
2022/10/21 10:11:10;;;;;;;5.23;3.20;;;18.80;99.90;;;;;;5048606;22;20487;-75
2022/10/21 10:13:39;;;;;;;5.47;3.27;;;18.80;99.90;;;;;;5075647;28;20747;-76
2022/10/21 10:16:30;;;;;;;5.07;3.00;;;18.70;99.90;;;;;;5075086;28;20412;-75
2022/10/21 10:19:14;;;;;;;6.23;2.87;;;18.80;99.90;;;;;;5075611;28;20720;-74
2022/10/21 10:21:40;;;;;;;8.77;2.93;;;18.70;99.90;;;;;;5075232;28;20438;-75
2022/10/21 10:24:14;;;;;;;4.13;2.70;;;18.70;99.90;;;;;;5075070;28;21017;-75
2022/10/21 10:26:41;;;;;;;5.50;3.50;;;18.70;99.90;;;;;;5074849;28;20158;-74
2022/10/21 10:29:09;;;;;;;3.93;3.10;;;18.80;99.90;;;;;;5074828;28;20508;-74
2022/10/21 10:31:36;;;;;;;4.47;2.83;;;18.90;99.90;;;;;;5057150;28;20452;-74
2022/10/21 10:34:06;;;;;;;3.57;2.70;;;19.00;99.90;;;;;;5074988;28;20431;-75
2022/10/21 10:36:39;;;;;;;4.97;3.13;;;18.90;99.90;;;;;;5057023;28;20408;-74
2022/10/21 10:39:15;;;;;;;6.53;3.27;;;18.80;99.90;;;;;;5056830;28;20511;-74
2022/10/21 10:41:45;;;;;;;6.13;3.03;;;18.90;99.90;;;;;;5074500;28;20451;-75
2022/10/21 10:44:37;;;;;;;6.60;4.03;;;18.90;99.90;;;;;;5075319;28;20482;-75
2022/10/21 10:47:05;;;;;;;5.73;3.10;;;18.80;99.90;;;;;;5075590;28;20465;-74
2022/10/21 10:49:40;;;;;;;6.20;3.30;;;18.80;99.90;;;;;;5075647;28;20742;-74
2022/10/21 10:52:08;;;;;;;6.97;4.10;;;18.70;99.90;;;;;;5074801;28;20997;-74
2022/10/21 10:54:38;;;;;;;8.20;3.73;;;18.70;99.90;;;;;;5074465;28;20393;-74
2022/10/21 10:57:22;;;;;;;7.80;3.10;;;18.70;99.90;;;;;;5073959;28;20877;-74
2022/10/21 11:00:00;;;;;;;6.70;4.00;;;18.80;99.90;;;;;;5074976;28;20396;-77
2022/10/21 11:02:48;;;;;;;6.10;3.10;;;18.80;99.90;;;;;;5074134;28;20623;-74
2022/10/21 11:05:19;;;;;;;4.00;3.07;;;18.70;99.90;;;;;;5074806;28;20392;-75
2022/10/21 11:07:51;;;;;;;7.87;3.07;;;18.90;99.90;;;;;;5074493;28;20859;-75
2022/10/21 11:10:44;;;;;;;8.70;3.53;;;19.00;99.90;;;;;;5072956;28;20882;-75
2022/10/21 11:13:22;;;;;;;7.73;3.27;;;19.20;99.90;;;;;;5056291;28;20424;-75
2022/10/21 11:16:04;;;;;;;8.43;3.30;;;19.30;99.90;;;;;;5074084;28;20412;-75
2022/10/21 11:18:47;;;;;;;4.87;2.77;;;19.00;99.90;;;;;;5055893;28;20412;-74
2022/10/21 11:21:54;;;;;;;4.23;3.00;;;19.10;99.90;;;;;;5055592;28;20435;-75
2022/10/21 11:24:50;;;;;;;5.73;3.83;;;19.40;99.90;;;;;;5055661;28;20444;-74
2022/10/21 11:27:47;;;;;;;6.77;2.77;;;19.70;99.90;;;;;;5074126;28;20404;-74
2022/10/21 11:30:18;;;;;;;4.03;2.67;;;19.90;99.90;;;;;;5072053;28;20412;-74
2022/10/21 11:33:08;;;;;;;7.20;2.83;;;20.20;99.90;;;;;;5073628;28;20762;-74
2022/10/21 11:35:40;;;;;;;7.00;2.90;;;20.10;99.90;;;;;;5073384;28;20416;-75
2022/10/21 11:38:23;;;;;;;7.50;3.27;;;19.90;99.90;;;;;;5072553;28;20784;-74
2022/10/21 11:40:53;;;;;;;5.43;2.57;;;20.00;99.90;;;;;;5073364;28;20424;-74
2022/10/21 11:43:37;;;;;;;5.20;2.53;;;20.20;99.90;;;;;;5073676;28;20438;-73
2022/10/21 11:46:11;;;;;;;5.57;3.00;;;20.30;99.90;;;;;;5074558;28;20392;-74
2022/10/21 11:48:45;;;;;;;7.83;2.80;;;20.70;99.90;;;;;;5073695;28;20389;-74
2022/10/21 11:51:26;;;;;;;4.73;1.80;;;20.80;99.90;;;;;;5073526;28;20420;-74
2022/10/21 11:54:24;;;;;;;3.23;1.70;;;20.70;99.90;;;;;;5073342;28;20428;-74
2022/10/21 11:57:18;;;;;;;4.97;1.97;;;20.70;99.90;;;;;;5055586;28;20507;-74
2022/10/21 12:00:00;;;;;;;3.27;1.80;;;20.40;99.90;;;;;;5072857;28;20393;-73
2022/10/21 12:02:26;;;;;;;4.57;1.97;;;20.20;99.90;;;;;;5052929;28;21043;-75
2022/10/21 12:05:16;;;;;;;5.13;2.07;;;20.20;99.90;;;;;;5053196;28;20409;-74
2022/10/21 12:08:26;;;;;;;2.17;1.37;;;20.40;99.90;;;;;;5070535;28;20648;-74
2022/10/21 12:11:20;;;;;;;2.70;1.50;;;20.40;99.90;;;;;;5073417;28;20924;-74
2022/10/21 12:14:18;;;;;;;3.83;1.80;;;20.10;99.90;;;;;;5072909;28;20393;-74
2022/10/21 12:16:45;;;;;;;6.27;2.00;;;20.10;99.90;;;;;;5060036;28;20416;-74
2022/10/21 12:19:12;;;;;;;4.00;2.00;;;20.10;99.90;;;;;;5072584;28;20415;-75
2022/10/21 12:21:41;;;;;;;3.00;1.77;;;20.00;99.90;;;;;;5073206;28;20420;-75
2022/10/21 12:24:09;;;;;;;5.40;1.90;;;19.90;99.90;;;;;;5072886;28;20444;-74
2022/10/21 12:27:02;;;;;;;2.43;1.30;;;20.00;99.90;;;;;;5073370;28;20396;-73
2022/10/21 12:29:55;;;;;;;2.10;1.60;;;19.90;99.90;;;;;;5073061;28;20380;-74
2022/10/21 12:32:50;;;;;;;2.27;1.40;;;19.80;99.90;;;;;;5073155;28;20439;-74
2022/10/21 12:35:25;;;;;;;6.73;1.30;;;19.70;99.90;;;;;;5047981;28;20412;-75
2022/10/21 12:37:51;;;;;;;4.10;1.20;;;19.90;99.90;;;;;;5073427;28;20418;-74
2022/10/21 12:40:34;;;;;;;5.93;1.50;;;19.70;99.90;;;;;;5073365;28;20407;-73
2022/10/21 12:43:21;;;;;;;6.50;1.50;;;19.70;99.90;;;;;;5072928;28;20189;-74
2022/10/21 12:45:59;;;;;;;1.90;1.60;;;19.80;99.90;;;;;;5074573;28;20391;-74
2022/10/21 12:48:47;;;;;;;2.50;1.60;;;19.90;99.90;;;;;;5073343;28;20392;-74
2022/10/21 12:51:22;;;;;;;2.97;1.57;;;19.70;99.90;;;;;;5072923;28;20415;-74
2022/10/21 12:53:56;;;;;;;3.43;1.53;;;19.60;99.90;;;;;;5073069;28;20398;-74
2022/10/21 12:56:42;;;;;;;3.60;1.87;;;19.70;99.90;;;;;;5073578;28;20389;-74